Portada
METAR-TAF:

METAR-TAF

Aeroports :

Tôlanaro, Madagascar

latitud: 25-02S, longitud: 046-57E, altitud: 8 m

Observació

L'informe es va fer fa 1 hora i 5 minuts, a les 06:00 UTC
Vent 2 kt amb direcció variable
Temperatura 23°C
Humitat 73%
Pressió 1017 hPa
Visibilitat 10 km o més
Escasses núvols a una alçada de 2000 ft

METAR: FMSD 080600Z VRB02KT 9999 FEW020 23/18 Q1017

Hora: 10:05 (07:05 UTC)

Pronòstic

L'informe es va fer fa 2 hores i 5 minuts, a les 05:00 UTC
Pronòstic vàlid del 08 a les 06 UTC al 09 a les 06 UTC
Vent 10 kt del Est/Sud-Est
Visibilitat 10 km o més
Núvols disperses a una alçada de 1600 ft
Núvols disperses a una alçada de 3300 ft
Probabilitat 30% :
Temporalment
l' 08 a les 06 UTC al 08 a les 15 UTC
Visibilitat: 4500 m
xàfecs de pluja
Evolucionant progressivament
l' 08 a les 15 UTC al 08 a les 17 UTC
Vent 12 kt del Est/Nord-Est

TAF: FMSD 080500Z 0806/0906 12010KT 9999 SCT016 SCT033 PROB30 TEMPO 0806/0815 4500 SHRA BECMG 0815/0817 06012KT

Observacions i pronòstics meteorològics de més de 4000 aeroports (METAR i TAF).

Les estacions disponibles són els punts grocs i vermells al mapa.

Posi el ratolí al punt desitjat per veure el nom de l'estació.

Feu clic per veure les observacions i els pronòstics meteorològics.

Per canviar el mapa: feu clic els botons verds amb una creu de color negre per apropar; al botó verd amb un guió per allunyar la imatge; o en les fletxes verdes per a mapes adjacents.


METAR-TAF: